createdAt,value
2023-02-22T00:02:13.308Z,11.00
2023-02-22T00:04:46.463Z,11.30
2023-02-22T00:07:21.414Z,10.48
2023-02-22T00:09:56.891Z,12.20
2023-02-22T00:12:31.146Z,12.30
2023-02-22T00:15:05.778Z,10.68
2023-02-22T00:17:38.988Z,10.52
2023-02-22T00:20:15.263Z,10.40
2023-02-22T00:22:51.650Z,11.93
2023-02-22T00:25:26.367Z,11.65
2023-02-22T00:28:00.763Z,12.80
2023-02-22T00:30:34.855Z,14.13
2023-02-22T00:33:09.461Z,14.30
2023-02-22T00:35:45.840Z,16.98
2023-02-22T00:38:20.483Z,15.57
2023-02-22T00:40:55.705Z,14.95
2023-02-22T00:43:30.189Z,16.55
2023-02-22T00:46:03.904Z,19.45
2023-02-22T00:48:37.160Z,16.63
2023-02-22T00:51:10.316Z,19.25
2023-02-22T00:53:43.712Z,18.80
2023-02-22T00:56:18.388Z,20.20
2023-02-22T00:58:52.054Z,21.38
2023-02-22T01:01:25.389Z,21.52
2023-02-22T01:03:59.215Z,22.40
2023-02-22T01:09:07.800Z,22.45
2023-02-22T01:11:42.699Z,19.38
2023-02-22T01:14:18.269Z,18.58
2023-02-22T01:16:52.236Z,17.65
2023-02-22T01:19:25.561Z,15.05
2023-02-22T01:21:58.921Z,14.65
2023-02-22T01:24:32.418Z,13.73
2023-02-22T01:27:07.152Z,13.63
2023-02-22T01:29:41.422Z,13.48
2023-02-22T01:32:15.741Z,13.45
2023-02-22T01:37:21.844Z,15.30
2023-02-22T01:39:55.035Z,12.68
2023-02-22T01:42:30.430Z,12.52
2023-02-22T01:45:52.700Z,10.38
2023-02-22T01:48:31.030Z,9.40
2023-02-22T01:51:10.802Z,9.57
2023-02-22T01:53:50.703Z,9.85
2023-02-22T01:56:26.392Z,10.18
2023-02-22T01:59:06.918Z,10.77
2023-02-22T02:01:42.991Z,12.25
2023-02-22T02:04:20.716Z,9.95
2023-02-22T02:06:55.665Z,11.02
2023-02-22T02:09:37.675Z,12.07
2023-02-22T02:12:18.535Z,12.30
2023-02-22T02:14:53.806Z,10.88
2023-02-22T02:17:27.246Z,11.45
2023-02-22T02:20:08.376Z,10.05
2023-02-22T02:22:51.526Z,10.07
2023-02-22T02:26:09.178Z,10.10
2023-02-22T02:29:17.227Z,9.45
2023-02-22T02:32:18.909Z,10.63
2023-02-22T02:34:59.657Z,10.02
2023-02-22T02:37:37.796Z,10.45
2023-02-22T02:40:21.072Z,12.07
2023-02-22T02:43:01.357Z,13.07
2023-02-22T02:45:42.183Z,13.98
2023-02-22T02:48:22.197Z,15.15
2023-02-22T02:50:59.766Z,13.43
2023-02-22T02:53:37.678Z,12.88
2023-02-22T02:56:10.918Z,12.63
2023-02-22T02:58:49.133Z,13.93
2023-02-22T03:01:38.863Z,12.98
2023-02-22T03:04:31.022Z,14.02
2023-02-22T03:07:22.340Z,15.20
2023-02-22T03:10:08.288Z,12.98
2023-02-22T03:12:50.067Z,11.30
2023-02-22T03:15:32.561Z,10.82
2023-02-22T03:18:10.607Z,12.20
2023-02-22T03:20:51.350Z,10.98
2023-02-22T03:23:29.845Z,11.50
2023-02-22T03:26:06.607Z,11.63
2023-02-22T03:28:44.147Z,10.05
2023-02-22T03:31:22.912Z,10.25
2023-02-22T03:33:59.172Z,9.75
2023-02-22T03:36:39.072Z,10.75
2023-02-22T03:39:17.175Z,9.02
2023-02-22T03:41:52.607Z,9.18
2023-02-22T03:44:30.300Z,9.57
2023-02-22T03:47:08.947Z,9.10
2023-02-22T03:49:48.450Z,9.00
2023-02-22T03:52:23.522Z,10.63
2023-02-22T03:54:57.215Z,10.65
2023-02-22T03:57:34.889Z,12.15
2023-02-22T04:00:14.813Z,12.40
2023-02-22T04:02:48.191Z,11.68
2023-02-22T04:05:22.050Z,12.65
2023-02-22T04:10:31.795Z,12.93
2023-02-22T04:13:07.133Z,14.68
2023-02-22T04:15:40.926Z,15.05
2023-02-22T04:18:14.126Z,13.73
2023-02-22T04:20:47.418Z,10.90
2023-02-22T04:23:22.124Z,8.68
2023-02-22T04:25:55.661Z,10.55
2023-02-22T04:28:29.342Z,11.77
2023-02-22T04:31:02.819Z,10.68
2023-02-22T04:33:36.569Z,9.85
2023-02-22T04:36:10.974Z,11.88
2023-02-22T04:38:45.705Z,12.10
2023-02-22T04:41:19.587Z,13.48
2023-02-22T04:43:53.289Z,12.15
2023-02-22T04:46:26.730Z,14.55
2023-02-22T04:49:00.053Z,12.57
2023-02-22T04:51:33.754Z,14.45
2023-02-22T04:54:08.477Z,15.48
2023-02-22T04:56:41.778Z,17.02
2023-02-22T04:59:15.401Z,17.45
2023-02-22T05:01:48.928Z,16.98
2023-02-22T05:04:22.822Z,17.50
2023-02-22T05:06:56.132Z,17.88
2023-02-22T05:09:30.745Z,22.33
2023-02-22T05:12:10.270Z,20.25
2023-02-22T05:14:44.581Z,18.15
2023-02-22T05:19:51.445Z,31.05
2023-02-22T05:22:24.885Z,35.78
2023-02-22T05:24:59.750Z,30.33
2023-02-22T05:27:33.570Z,21.75
2023-02-22T05:30:09.287Z,20.65
2023-02-22T05:32:42.535Z,26.42
2023-02-22T05:35:15.973Z,26.52
2023-02-22T05:37:50.769Z,32.00
2023-02-22T05:40:27.497Z,33.95
2023-02-22T05:43:02.240Z,34.30
2023-02-22T05:45:36.192Z,32.72
2023-02-22T05:48:09.962Z,32.92
2023-02-22T05:53:17.300Z,48.78
2023-02-22T05:55:52.006Z,43.40
2023-02-22T05:58:25.691Z,39.88
2023-02-22T06:01:00.146Z,29.88
2023-02-22T06:03:34.261Z,29.33
2023-02-22T06:06:07.975Z,25.90
2023-02-22T06:08:41.253Z,23.70
2023-02-22T06:11:16.385Z,25.95
2023-02-22T06:13:52.690Z,24.70
2023-02-22T06:16:26.104Z,26.33
2023-02-22T06:18:59.899Z,25.17
2023-02-22T06:21:33.302Z,26.25
2023-02-22T06:24:07.219Z,30.10
2023-02-22T06:26:41.699Z,30.20
2023-02-22T06:29:15.193Z,36.33
2023-02-22T06:31:48.951Z,40.78
2023-02-22T06:34:23.389Z,45.28
2023-02-22T06:36:57.600Z,51.03
2023-02-22T06:39:32.496Z,47.67
2023-02-22T06:42:07.432Z,50.20
2023-02-22T06:44:41.243Z,47.13
2023-02-22T06:47:14.643Z,45.42
2023-02-22T06:49:54.025Z,44.08
2023-02-22T06:52:27.285Z,47.08
2023-02-22T06:55:00.562Z,45.60
2023-02-22T06:57:35.501Z,43.17
2023-02-22T07:00:10.457Z,41.35
2023-02-22T07:02:44.184Z,49.08
2023-02-22T07:05:19.998Z,47.95
2023-02-22T07:07:55.078Z,60.83
2023-02-22T07:10:30.554Z,68.38
2023-02-22T07:13:08.947Z,46.05
2023-02-22T07:15:42.688Z,44.70
2023-02-22T07:18:16.713Z,45.88
2023-02-22T07:23:24.290Z,40.08
2023-02-22T07:26:00.614Z,39.33
2023-02-22T07:28:35.220Z,40.28
2023-02-22T07:31:08.616Z,38.17
2023-02-22T07:33:42.149Z,40.33
2023-02-22T07:36:18.014Z,40.15
2023-02-22T07:38:51.676Z,36.28
2023-02-22T07:41:25.289Z,35.72
2023-02-22T07:44:00.111Z,34.90
2023-02-22T07:46:33.979Z,26.30
2023-02-22T07:49:07.180Z,23.67
2023-02-22T07:51:40.699Z,34.13
2023-02-22T07:54:14.460Z,36.42
2023-02-22T07:56:49.370Z,32.30
2023-02-22T07:59:24.080Z,26.55
2023-02-22T08:01:57.424Z,27.02
2023-02-22T08:04:30.780Z,26.80
2023-02-22T08:07:04.136Z,24.65
2023-02-22T08:09:37.755Z,25.83
2023-02-22T08:12:12.620Z,22.85
2023-02-22T08:14:47.861Z,19.08
2023-02-22T08:17:21.528Z,12.93
2023-02-22T08:19:55.117Z,14.63
2023-02-22T08:22:29.166Z,13.60
2023-02-22T08:25:02.610Z,13.77
2023-02-22T08:27:36.445Z,12.23
2023-02-22T08:30:15.805Z,12.13
2023-02-22T08:32:49.786Z,11.32
2023-02-22T08:37:59.728Z,10.25
2023-02-22T08:40:35.705Z,10.43
2023-02-22T08:43:09.133Z,12.25
2023-02-22T08:45:45.783Z,12.80
2023-02-22T08:48:20.838Z,10.45
2023-02-22T08:50:55.017Z,10.38
2023-02-22T08:53:28.870Z,7.85
2023-02-22T08:56:02.348Z,8.13
2023-02-22T08:58:35.568Z,8.23
2023-02-22T09:01:10.462Z,9.02
2023-02-22T09:03:43.904Z,6.97
2023-02-22T09:06:17.469Z,4.32
2023-02-22T09:08:50.982Z,3.47
2023-02-22T09:13:58.474Z,4.37
2023-02-22T09:21:41.346Z,5.55
2023-02-22T09:24:14.882Z,4.07
2023-02-22T09:26:53.509Z,3.45
2023-02-22T09:29:28.773Z,3.70
2023-02-22T09:32:04.482Z,5.15
2023-02-22T09:34:38.185Z,4.15
2023-02-22T09:37:11.514Z,3.30
2023-02-22T09:39:45.048Z,3.65
2023-02-22T09:42:27.730Z,3.35
2023-02-22T09:45:12.862Z,3.45
2023-02-22T09:47:56.575Z,3.55
2023-02-22T09:50:35.696Z,2.67
2023-02-22T09:53:22.248Z,2.65
2023-02-22T09:55:57.976Z,2.70
2023-02-22T09:58:34.994Z,3.08
2023-02-22T10:01:19.936Z,4.03
2023-02-22T10:04:02.491Z,4.53
2023-02-22T10:06:37.526Z,3.33
2023-02-22T10:09:12.403Z,3.25
2023-02-22T10:11:53.541Z,2.20
2023-02-22T10:14:45.152Z,2.25
2023-02-22T10:17:30.438Z,1.83
2023-02-22T10:20:24.198Z,2.72
2023-02-22T10:23:12.157Z,3.07
2023-02-22T10:25:47.244Z,2.72
2023-02-22T10:28:24.982Z,2.00
2023-02-22T10:31:03.234Z,2.25
2023-02-22T10:33:41.897Z,2.00
2023-02-22T10:36:20.442Z,2.03
2023-02-22T10:38:56.803Z,2.55
2023-02-22T10:41:33.127Z,2.80
2023-02-22T10:44:06.570Z,2.75
2023-02-22T10:46:42.166Z,2.00
2023-02-22T10:49:22.533Z,2.10
2023-02-22T10:52:02.784Z,1.90
2023-02-22T10:54:42.165Z,1.90
2023-02-22T10:57:15.937Z,2.38
2023-02-22T10:59:49.234Z,2.13
2023-02-22T11:02:26.109Z,2.95
2023-02-22T11:05:02.440Z,3.20
2023-02-22T11:07:38.221Z,1.75
2023-02-22T11:10:11.737Z,1.95
2023-02-22T11:12:48.659Z,2.63
2023-02-22T11:15:31.358Z,1.70
2023-02-22T11:18:04.803Z,1.67
2023-02-22T11:20:40.864Z,2.45
2023-02-22T11:23:23.619Z,2.00
2023-02-22T11:26:08.535Z,2.40
2023-02-22T11:28:49.484Z,1.80
2023-02-22T11:31:25.601Z,2.15
2023-02-22T11:34:01.535Z,1.90
2023-02-22T11:36:40.845Z,2.45
2023-02-22T11:39:26.023Z,1.70
2023-02-22T11:42:00.132Z,1.90
2023-02-22T11:44:34.453Z,1.92
2023-02-22T11:47:13.306Z,1.70
2023-02-22T11:49:47.457Z,1.77
2023-02-22T11:52:28.490Z,2.13
2023-02-22T11:55:32.649Z,2.17
2023-02-22T11:58:31.153Z,2.30
2023-02-22T12:01:12.389Z,1.80
2023-02-22T12:04:25.052Z,1.92
2023-02-22T12:07:15.904Z,2.00
2023-02-22T12:09:56.084Z,2.65
2023-02-22T12:12:45.316Z,2.75
2023-02-22T12:15:29.776Z,3.45
2023-02-22T12:18:09.913Z,2.90
2023-02-22T12:20:47.990Z,2.45
2023-02-22T12:23:30.181Z,2.72
2023-02-22T12:26:11.878Z,2.35
2023-02-22T12:28:52.641Z,2.45
2023-02-22T12:31:33.938Z,2.45
2023-02-22T12:34:13.978Z,3.00
2023-02-22T12:36:51.323Z,3.33
2023-02-22T12:39:47.140Z,2.45
2023-02-22T12:42:32.048Z,2.05
2023-02-22T12:45:16.911Z,2.35
2023-02-22T12:47:59.005Z,2.00
2023-02-22T12:50:34.621Z,2.10
2023-02-22T12:53:19.526Z,1.88
2023-02-22T12:55:57.240Z,2.25
2023-02-22T12:58:37.489Z,1.98
2023-02-22T13:01:20.322Z,2.03
2023-02-22T13:03:56.934Z,1.83
2023-02-22T13:06:41.803Z,2.50
2023-02-22T13:09:38.647Z,1.88
2023-02-22T13:12:18.529Z,2.28
2023-02-22T13:15:03.975Z,1.85
2023-02-22T13:17:48.763Z,1.98
2023-02-22T13:20:27.984Z,1.13
2023-02-22T13:23:06.124Z,1.52
2023-02-22T13:25:45.314Z,1.60
2023-02-22T13:28:29.565Z,1.52
2023-02-22T13:31:16.997Z,1.20
2023-02-22T13:34:13.146Z,1.77
2023-02-22T13:37:02.552Z,2.22
2023-02-22T13:39:54.774Z,1.70
2023-02-22T13:42:54.912Z,1.83
2023-02-22T13:45:45.499Z,1.70
2023-02-22T13:48:41.432Z,2.67
2023-02-22T13:51:31.707Z,1.95
2023-02-22T13:54:09.134Z,1.77
2023-02-22T13:56:43.938Z,1.50
2023-02-22T13:59:27.400Z,2.33
2023-02-22T14:02:04.364Z,2.00
2023-02-22T14:04:44.179Z,1.65
2023-02-22T14:07:57.073Z,2.60
2023-02-22T14:10:45.367Z,2.03
2023-02-22T14:13:20.148Z,2.15
2023-02-22T14:16:18.668Z,2.20
2023-02-22T14:19:06.432Z,1.70
2023-02-22T14:21:57.333Z,2.20
2023-02-22T14:24:42.772Z,1.70
2023-02-22T14:27:18.481Z,1.70
2023-02-22T14:29:55.315Z,2.00
2023-02-22T14:32:33.501Z,2.08
2023-02-22T14:35:17.169Z,1.95
2023-02-22T14:38:00.863Z,2.00
2023-02-22T14:40:37.768Z,1.98
2023-02-22T14:43:19.936Z,2.22
2023-02-22T14:45:55.586Z,1.60
2023-02-22T14:48:39.424Z,1.83
2023-02-22T14:51:21.857Z,2.30
2023-02-22T14:54:03.510Z,2.08
2023-02-22T14:56:44.335Z,2.15
2023-02-22T14:59:24.198Z,2.13
2023-02-22T15:02:11.833Z,2.97
2023-02-22T15:04:52.708Z,2.47
2023-02-22T15:07:28.374Z,3.55
2023-02-22T15:10:27.852Z,2.85
2023-02-22T15:13:13.521Z,3.55
2023-02-22T15:15:49.993Z,4.00
2023-02-22T15:18:29.417Z,5.32
2023-02-22T15:21:07.863Z,5.13
2023-02-22T15:23:44.798Z,6.95
2023-02-22T15:26:21.617Z,7.10
2023-02-22T15:28:56.451Z,5.47
2023-02-22T15:31:33.972Z,6.10
2023-02-22T15:34:24.354Z,6.90
2023-02-22T15:37:06.516Z,8.27
2023-02-22T15:39:44.030Z,8.93
2023-02-22T15:42:21.127Z,8.35
2023-02-22T15:44:55.789Z,8.70
2023-02-22T15:47:32.277Z,9.05
2023-02-22T15:50:16.594Z,9.43
2023-02-22T15:52:54.327Z,12.52
2023-02-22T15:55:30.650Z,10.95
2023-02-22T15:58:13.053Z,12.48
2023-02-22T16:00:50.526Z,11.30
2023-02-22T16:03:28.824Z,10.50
2023-02-22T16:06:02.719Z,12.75
2023-02-22T16:08:54.293Z,13.00
2023-02-22T16:11:32.059Z,10.52
2023-02-22T16:14:08.202Z,12.82
2023-02-22T16:16:43.322Z,11.10
2023-02-22T16:19:31.337Z,11.45
2023-02-22T16:22:13.462Z,10.52
2023-02-22T16:24:52.179Z,11.05
2023-02-22T16:27:25.798Z,10.60
2023-02-22T16:30:23.343Z,10.57
2023-02-22T16:32:58.315Z,10.02
2023-02-22T16:35:35.583Z,9.50
2023-02-22T16:38:17.009Z,8.85
2023-02-22T16:40:54.978Z,9.93
2023-02-22T16:43:32.745Z,8.88
2023-02-22T16:46:07.916Z,9.15
2023-02-22T16:48:43.859Z,9.60
2023-02-22T16:51:24.064Z,10.27
2023-02-22T16:53:58.083Z,10.43
2023-02-22T16:59:10.971Z,11.55
2023-02-22T17:01:44.451Z,12.38
2023-02-22T17:04:19.990Z,12.88
2023-02-22T17:06:54.800Z,12.23
2023-02-22T17:09:28.117Z,13.07
2023-02-22T17:12:03.652Z,11.70
2023-02-22T17:14:37.817Z,12.43
2023-02-22T17:17:13.136Z,11.18
2023-02-22T17:19:47.863Z,10.32
2023-02-22T17:22:23.927Z,10.13
2023-02-22T17:24:57.144Z,9.80
2023-02-22T17:27:30.791Z,8.43
2023-02-22T17:30:04.850Z,9.43
2023-02-22T17:32:38.276Z,9.20
2023-02-22T17:35:11.916Z,9.88
2023-02-22T17:37:47.525Z,10.88
2023-02-22T17:40:20.742Z,10.77
2023-02-22T17:42:55.366Z,12.27
2023-02-22T17:45:29.479Z,11.43
2023-02-22T17:48:02.890Z,10.85
2023-02-22T17:50:38.196Z,17.02
2023-02-22T17:53:14.082Z,27.50
2023-02-22T17:55:47.255Z,32.85
2023-02-22T17:58:20.525Z,33.30
2023-02-22T18:00:59.231Z,34.30
2023-02-22T18:03:33.495Z,34.28
2023-02-22T18:06:08.538Z,35.38
2023-02-22T18:08:43.229Z,34.75
2023-02-22T18:11:16.810Z,28.15
2023-02-22T18:13:50.232Z,20.25
2023-02-22T18:16:25.557Z,20.02
2023-02-22T18:19:01.562Z,17.45
2023-02-22T18:21:35.239Z,18.80
2023-02-22T18:24:10.171Z,20.40
2023-02-22T18:26:43.460Z,16.15
2023-02-22T18:29:17.016Z,15.63
2023-02-22T18:31:50.257Z,14.85
2023-02-22T18:34:25.050Z,11.82
2023-02-22T18:36:58.691Z,11.05
2023-02-22T18:39:40.672Z,11.20
2023-02-22T18:42:15.103Z,11.55
2023-02-22T18:44:48.484Z,12.63
2023-02-22T18:47:22.818Z,12.20
2023-02-22T18:49:56.903Z,13.32
2023-02-22T18:52:31.250Z,13.32
2023-02-22T18:57:43.099Z,12.85
2023-02-22T19:00:19.953Z,12.93
2023-02-22T19:02:53.733Z,11.68
2023-02-22T19:05:27.653Z,14.15
2023-02-22T19:10:36.700Z,14.50
2023-02-22T19:13:10.845Z,12.93
2023-02-22T19:15:44.804Z,12.27
2023-02-22T19:18:18.284Z,15.25
2023-02-22T19:20:57.154Z,14.15
2023-02-22T19:23:34.475Z,13.55
2023-02-22T19:26:10.372Z,14.27
2023-02-22T19:28:43.557Z,14.02
2023-02-22T19:33:53.351Z,16.60
2023-02-22T19:36:26.887Z,14.93
2023-02-22T19:39:02.025Z,12.43
2023-02-22T19:41:37.097Z,12.02
2023-02-22T19:44:10.640Z,14.23
2023-02-22T19:49:18.785Z,12.82
2023-02-22T19:51:52.697Z,13.90
2023-02-22T19:54:25.966Z,15.55
2023-02-22T19:57:01.077Z,15.68
2023-02-22T19:59:34.819Z,17.15
2023-02-22T20:02:12.202Z,19.45
2023-02-22T20:04:50.096Z,19.83
2023-02-22T20:07:23.822Z,20.80
2023-02-22T20:12:32.761Z,20.08
2023-02-22T20:15:07.097Z,21.10
2023-02-22T20:17:41.649Z,19.77
2023-02-22T20:20:15.318Z,24.63
2023-02-22T20:22:50.625Z,23.85
2023-02-22T20:25:24.122Z,20.02
2023-02-22T20:28:00.784Z,15.32
2023-02-22T20:30:34.135Z,11.13
2023-02-22T20:33:10.354Z,11.82
2023-02-22T20:35:43.632Z,11.00
2023-02-22T20:38:19.295Z,10.23
2023-02-22T20:40:52.588Z,9.07
2023-02-22T20:43:27.288Z,9.77
2023-02-22T20:46:02.700Z,9.95
2023-02-22T20:48:36.428Z,10.93
2023-02-22T20:51:11.061Z,11.18
2023-02-22T20:53:45.135Z,9.25
2023-02-22T20:56:20.849Z,10.85
2023-02-22T20:58:56.988Z,10.60
2023-02-22T21:01:31.161Z,10.13
2023-02-22T21:06:41.394Z,9.40
2023-02-22T21:09:18.195Z,9.52
2023-02-22T21:11:52.554Z,8.82
2023-02-22T21:17:04.577Z,8.68
2023-02-22T21:19:38.237Z,9.85
2023-02-22T21:22:11.712Z,10.15
2023-02-22T21:24:44.978Z,10.82
2023-02-22T21:27:18.531Z,10.35
2023-02-22T21:32:26.658Z,10.07
2023-02-22T21:35:00.396Z,12.95
2023-02-22T21:37:34.544Z,11.77
2023-02-22T21:40:12.121Z,11.13
2023-02-22T21:42:49.096Z,10.48
2023-02-22T21:45:24.179Z,11.23
2023-02-22T21:47:57.372Z,11.75
2023-02-22T21:50:30.879Z,10.98
2023-02-22T21:53:05.565Z,10.00
2023-02-22T21:55:39.090Z,10.30
2023-02-22T21:58:12.573Z,10.55
2023-02-22T22:00:47.456Z,9.93
2023-02-22T22:03:21.521Z,9.40
2023-02-22T22:08:28.969Z,8.63
2023-02-22T22:11:02.917Z,9.90
2023-02-22T22:13:39.249Z,10.13
2023-02-22T22:16:16.476Z,9.88
2023-02-22T22:18:50.342Z,9.00
2023-02-22T22:21:25.202Z,9.25
2023-02-22T22:23:58.475Z,9.05
2023-02-22T22:26:33.878Z,8.52
2023-02-22T22:29:10.271Z,9.18
2023-02-22T22:31:44.902Z,9.50
2023-02-22T22:34:19.583Z,9.43
2023-02-22T22:36:53.314Z,9.73
2023-02-22T22:39:27.050Z,9.52
2023-02-22T22:42:00.346Z,9.48
2023-02-22T22:44:41.970Z,9.60
2023-02-22T22:47:17.673Z,8.30
2023-02-22T22:49:50.959Z,8.57
2023-02-22T22:52:24.465Z,8.60
2023-02-22T22:55:00.700Z,9.70
2023-02-22T22:57:34.206Z,9.30
2023-02-22T23:00:31.174Z,8.65
2023-02-22T23:03:06.965Z,8.68
2023-02-22T23:05:42.357Z,9.32
2023-02-22T23:08:15.713Z,10.07
2023-02-22T23:10:49.000Z,11.07
2023-02-22T23:15:56.420Z,10.23
2023-02-22T23:18:33.987Z,10.25
2023-02-22T23:21:07.317Z,10.80
2023-02-22T23:23:41.215Z,11.00
2023-02-22T23:28:52.500Z,9.27
2023-02-22T23:31:29.411Z,9.73
2023-02-22T23:34:11.017Z,9.60
2023-02-22T23:36:45.306Z,9.10
2023-02-22T23:39:21.496Z,8.98
2023-02-22T23:41:59.233Z,11.20
2023-02-22T23:44:33.050Z,9.80
2023-02-22T23:47:06.409Z,9.45
2023-02-22T23:49:43.469Z,11.85
2023-02-22T23:52:24.107Z,10.85
2023-02-22T23:54:58.296Z,10.10
